Time;durP1;ratioP1;P1;durP2;ratioP2;P2;SDS_P1;SDS_P2;PMS_P1;PMS_P2;Temp;Humidity;BMP_temperature;BMP_pressure;BME280_temperature;BME280_humidity;BME280_pressure;Samples;Min_cycle;Max_cycle;Signal;HPM_P1;HPM_P2
2023/10/27 00:00:45;;;;;;;24.02;11.98;;;11.70;99.90;;;;;;5040986;28;20032;-69
2023/10/27 00:03:11;;;;;;;25.77;13.57;;;11.70;99.90;;;;;;5036937;28;20038;-68
2023/10/27 00:05:36;;;;;;;21.17;11.38;;;11.80;99.90;;;;;;5038643;28;20103;-69
2023/10/27 00:08:04;;;;;;;19.52;10.80;;;11.80;99.90;;;;;;5036702;28;20045;-68
2023/10/27 00:10:30;;;;;;;;;;;11.80;99.90;;;;;;5035511;28;20085;-68
2023/10/27 00:12:58;;;;;;;15.10;9.85;;;11.80;99.90;;;;;;5028641;28;19944;-68
2023/10/27 00:15:23;;;;;;;16.88;9.20;;;11.80;99.90;;;;;;5040124;28;20044;-68
2023/10/27 00:17:49;;;;;;;18.25;9.40;;;11.70;99.90;;;;;;5031886;28;20041;-68
2023/10/27 00:20:15;;;;;;;16.55;9.77;;;11.60;99.90;;;;;;5039242;28;20094;-68
2023/10/27 00:22:41;;;;;;;16.67;8.30;;;11.60;99.90;;;;;;5038262;28;20033;-68
2023/10/27 00:25:07;;;;;;;13.40;7.95;;;11.60;99.90;;;;;;5035761;28;22132;-69
2023/10/27 00:27:32;;;;;;;19.52;9.18;;;11.60;99.90;;;;;;5034168;28;20030;-68
2023/10/27 00:29:58;;;;;;;18.60;8.43;;;11.50;99.90;;;;;;5034163;28;20122;-69
2023/10/27 00:32:23;;;;;;;14.20;8.00;;;11.50;99.90;;;;;;5034349;28;20096;-68
2023/10/27 00:34:49;;;;;;;16.20;7.65;;;11.50;99.90;;;;;;5031198;28;20499;-69
2023/10/27 00:37:14;;;;;;;15.75;7.63;;;11.50;99.90;;;;;;5037105;28;20060;-68
2023/10/27 00:39:40;;;;;;;20.77;7.72;;;11.50;99.90;;;;;;5038109;28;20026;-68
2023/10/27 00:42:09;;;;;;;17.73;7.18;;;11.50;99.90;;;;;;5034609;28;20026;-68
2023/10/27 00:44:37;;;;;;;16.90;7.45;;;11.40;99.90;;;;;;5034384;28;20034;-69
2023/10/27 00:47:03;;;;;;;15.20;7.10;;;11.50;99.90;;;;;;5032619;28;20048;-68
2023/10/27 00:49:31;;;;;;;15.98;7.65;;;11.50;99.90;;;;;;5037843;28;20072;-68
2023/10/27 00:52:02;;;;;;;22.52;7.90;;;11.50;99.90;;;;;;5035730;28;20028;-68
2023/10/27 00:54:30;;;;;;;14.55;7.75;;;11.50;99.90;;;;;;5037792;28;20088;-68
2023/10/27 00:56:59;;;;;;;19.88;8.40;;;11.50;99.90;;;;;;5044184;28;20099;-69
2023/10/27 00:59:25;;;;;;;21.65;8.23;;;11.40;99.90;;;;;;5037802;28;20029;-69
2023/10/27 01:01:53;;;;;;;13.85;7.60;;;11.30;99.90;;;;;;5041781;28;20393;-69
2023/10/27 01:04:18;;;;;;;17.83;7.75;;;11.30;99.90;;;;;;5035368;28;20551;-68
2023/10/27 01:06:44;;;;;;;13.32;7.63;;;11.40;99.90;;;;;;5043421;28;20120;-68
2023/10/27 01:09:10;;;;;;;14.23;7.28;;;11.30;99.90;;;;;;5040066;28;20037;-68
2023/10/27 01:11:36;;;;;;;13.05;7.25;;;11.30;99.90;;;;;;5041823;28;20037;-68
2023/10/27 01:14:03;;;;;;;13.23;6.78;;;11.20;99.90;;;;;;5037444;28;20124;-68
2023/10/27 01:16:29;;;;;;;12.38;7.85;;;11.20;99.90;;;;;;5056070;28;20061;-68
2023/10/27 01:18:55;;;;;;;18.73;6.82;;;11.10;99.90;;;;;;5038637;28;20064;-68
2023/10/27 01:21:21;;;;;;;17.90;7.55;;;11.10;99.90;;;;;;5037716;28;20112;-69
2023/10/27 01:23:48;;;;;;;20.52;7.90;;;11.10;99.90;;;;;;5038283;28;20100;-69
2023/10/27 01:26:16;;;;;;;14.82;7.50;;;11.10;99.90;;;;;;5035627;28;20037;-68
2023/10/27 01:28:42;;;;;;;24.15;8.18;;;11.10;99.90;;;;;;5032837;28;20083;-68
2023/10/27 01:31:10;;;;;;;11.00;6.55;;;11.10;99.90;;;;;;5042250;28;20026;-68
2023/10/27 01:33:37;;;;;;;;;;;11.10;99.90;;;;;;5038817;28;20101;-68
2023/10/27 01:36:03;;;;;;;24.02;8.20;;;11.10;99.90;;;;;;5031242;28;19909;-68
2023/10/27 01:38:31;;;;;;;22.48;7.18;;;11.10;99.90;;;;;;5039635;28;20036;-68
2023/10/27 01:40:57;;;;;;;30.35;7.47;;;11.10;99.90;;;;;;5031135;28;20578;-68
2023/10/27 01:43:23;;;;;;;20.30;6.95;;;11.00;99.90;;;;;;5030943;28;20060;-69
2023/10/27 01:45:48;;;;;;;19.25;6.80;;;11.00;99.90;;;;;;5034722;28;20024;-68
2023/10/27 01:48:16;;;;;;;17.67;6.30;;;11.00;99.90;;;;;;5035755;28;20025;-69
2023/10/27 01:50:44;;;;;;;18.13;7.13;;;11.00;99.90;;;;;;5033469;28;20018;-69
2023/10/27 01:53:09;;;;;;;;;;;11.00;99.90;;;;;;5037553;28;20529;-68
2023/10/27 01:55:37;;;;;;;20.60;6.90;;;11.00;99.90;;;;;;5038823;28;19962;-68
2023/10/27 01:58:03;;;;;;;22.35;6.60;;;10.90;99.90;;;;;;5032568;28;20052;-68
2023/10/27 02:00:33;;;;;;;14.80;6.53;;;11.00;99.90;;;;;;5030053;28;20479;-69
2023/10/27 02:03:01;;;;;;;16.77;6.82;;;11.00;99.90;;;;;;5035385;28;20084;-68
2023/10/27 02:05:28;;;;;;;;;;;10.90;99.90;;;;;;5033829;28;20052;-68
2023/10/27 02:07:58;;;;;;;18.20;6.13;;;10.90;99.90;;;;;;5035618;28;20571;-68
2023/10/27 02:10:24;;;;;;;13.40;6.35;;;10.90;99.90;;;;;;5035771;28;20033;-68
2023/10/27 02:12:49;;;;;;;16.02;6.05;;;11.00;99.90;;;;;;5034163;28;20033;-68
2023/10/27 02:15:17;;;;;;;19.02;7.13;;;10.90;99.90;;;;;;5032739;28;20052;-68
2023/10/27 02:17:43;;;;;;;18.50;5.78;;;10.90;99.90;;;;;;5031780;28;20033;-68
2023/10/27 02:20:08;;;;;;;19.23;6.50;;;10.90;99.90;;;;;;5038203;28;20392;-68
2023/10/27 02:22:34;;;;;;;19.80;5.97;;;10.80;99.90;;;;;;5030725;28;20029;-68
2023/10/27 02:24:59;;;;;;;12.68;5.88;;;10.70;99.90;;;;;;5031936;28;20033;-68
2023/10/27 02:27:25;;;;;;;12.77;5.93;;;10.70;99.90;;;;;;5033784;28;20022;-68
2023/10/27 02:29:53;;;;;;;10.07;5.57;;;10.70;99.90;;;;;;5032880;28;20045;-68
2023/10/27 02:32:21;;;;;;;8.98;5.80;;;10.70;99.90;;;;;;5030114;28;20400;-68
2023/10/27 02:34:49;;;;;;;14.23;6.00;;;10.60;99.90;;;;;;5044843;28;20041;-68
2023/10/27 02:37:17;;;;;;;;;;;10.60;99.90;;;;;;5039406;28;20499;-68
2023/10/27 02:39:42;;;;;;;11.10;6.32;;;10.40;99.90;;;;;;5031934;28;19916;-68
2023/10/27 02:42:10;;;;;;;14.15;6.30;;;10.30;99.90;;;;;;5030606;28;20041;-68
2023/10/27 02:44:38;;;;;;;14.75;6.72;;;10.30;99.90;;;;;;5032534;28;20044;-68
2023/10/27 02:47:04;;;;;;;18.35;6.50;;;10.30;99.90;;;;;;5040815;28;20024;-69
2023/10/27 02:49:38;;;;;;;12.13;6.57;;;10.30;99.90;;;;;;5030330;28;20387;-68
2023/10/27 02:52:06;;;;;;;24.20;7.97;;;10.30;99.90;;;;;;5033401;28;20024;-68
2023/10/27 02:54:34;;;;;;;18.48;8.52;;;10.40;99.90;;;;;;5040343;28;20048;-68
2023/10/27 02:57:00;;;;;;;17.08;7.28;;;10.40;99.90;;;;;;5037396;28;20076;-68
2023/10/27 02:59:25;;;;;;;18.42;8.00;;;10.40;99.90;;;;;;5039408;28;20080;-68
2023/10/27 03:01:52;;;;;;;20.95;7.63;;;10.40;99.90;;;;;;5034462;28;20033;-68
2023/10/27 03:04:19;;;;;;;16.42;9.38;;;10.50;99.90;;;;;;5031500;28;20502;-68
2023/10/27 03:06:44;;;;;;;19.70;8.88;;;10.50;99.90;;;;;;5037298;28;20479;-68
2023/10/27 03:09:10;;;;;;;14.48;8.27;;;10.50;99.90;;;;;;5042071;28;20036;-68
2023/10/27 03:11:35;;;;;;;25.40;8.32;;;10.50;99.90;;;;;;5034538;28;20026;-68
2023/10/27 03:14:01;;;;;;;18.40;8.27;;;10.60;99.90;;;;;;5032849;28;20025;-68
2023/10/27 03:16:29;;;;;;;18.20;8.27;;;10.60;99.90;;;;;;5037768;28;20029;-68
2023/10/27 03:18:55;;;;;;;19.60;8.02;;;10.60;99.90;;;;;;5038892;28;20037;-68
2023/10/27 03:21:21;;;;;;;28.75;8.55;;;10.70;99.90;;;;;;5047592;28;20491;-68
2023/10/27 03:23:47;;;;;;;23.55;8.57;;;10.70;99.90;;;;;;5036753;28;20043;-69
2023/10/27 03:26:14;;;;;;;33.40;8.35;;;10.70;99.90;;;;;;5032290;28;20029;-68
2023/10/27 03:28:42;;;;;;;20.20;7.60;;;10.70;99.90;;;;;;5039277;28;20037;-68
2023/10/27 03:31:08;;;;;;;23.10;8.18;;;10.70;99.90;;;;;;5034637;28;20022;-68
2023/10/27 03:33:34;;;;;;;24.38;8.02;;;10.60;99.90;;;;;;5031855;28;20028;-68
2023/10/27 03:35:59;;;;;;;18.67;7.80;;;10.60;99.90;;;;;;5028189;28;20029;-68
2023/10/27 03:38:25;;;;;;;18.63;7.43;;;10.60;99.90;;;;;;5031557;28;20064;-68
2023/10/27 03:40:54;;;;;;;25.65;7.95;;;10.70;99.90;;;;;;5028436;28;20036;-66
2023/10/27 03:43:22;;;;;;;18.02;8.00;;;10.70;99.90;;;;;;5029308;28;20040;-66
2023/10/27 03:45:47;;;;;;;;;;;10.70;99.90;;;;;;5036326;28;20083;-66
2023/10/27 03:48:16;;;;;;;24.80;6.97;;;10.70;99.90;;;;;;5032016;28;20314;-67
2023/10/27 03:50:42;;;;;;;14.23;7.13;;;10.70;99.90;;;;;;5024250;28;20025;-67
2023/10/27 03:53:10;;;;;;;20.35;7.28;;;10.70;99.90;;;;;;5026176;28;20025;-67
2023/10/27 03:55:35;;;;;;;23.98;8.07;;;10.70;99.90;;;;;;5032751;28;20021;-66
2023/10/27 03:58:17;;;;;;;21.30;8.40;;;10.70;99.90;;;;;;5028759;28;20116;-66
2023/10/27 04:00:43;;;;;;;13.40;6.57;;;10.60;99.90;;;;;;5033257;28;20033;-66
2023/10/27 04:03:09;;;;;;;19.95;6.50;;;10.60;99.90;;;;;;5026477;28;20372;-67
2023/10/27 04:05:35;;;;;;;17.20;7.45;;;10.60;99.90;;;;;;5035244;28;20037;-66
2023/10/27 04:08:00;;;;;;;18.17;7.25;;;10.60;99.90;;;;;;5038886;28;20022;-66
2023/10/27 04:10:26;;;;;;;12.10;7.07;;;10.60;99.90;;;;;;5032970;28;20025;-66
2023/10/27 04:12:54;;;;;;;19.77;7.55;;;10.60;99.90;;;;;;5031387;28;20037;-67
2023/10/27 04:15:20;;;;;;;14.20;7.47;;;10.60;99.90;;;;;;5031920;28;20033;-67
2023/10/27 04:17:45;;;;;;;17.00;8.90;;;10.70;99.90;;;;;;5031746;28;20033;-66
2023/10/27 04:20:15;;;;;;;12.88;7.03;;;10.60;99.90;;;;;;5036401;28;20029;-66
2023/10/27 04:22:41;;;;;;;14.10;7.22;;;10.60;99.90;;;;;;5041361;28;20026;-66
2023/10/27 04:25:07;;;;;;;13.95;7.50;;;10.60;99.90;;;;;;5031830;28;20025;-66
2023/10/27 04:27:32;;;;;;;14.38;7.32;;;10.60;99.90;;;;;;5039530;28;20412;-67
2023/10/27 04:29:58;;;;;;;14.05;7.13;;;10.60;99.90;;;;;;5035630;28;20033;-67
2023/10/27 04:32:29;;;;;;;19.23;7.53;;;10.50;99.90;;;;;;5036627;28;20072;-66
2023/10/27 04:34:56;;;;;;;15.85;8.35;;;10.50;99.90;;;;;;5035497;28;20493;-67
2023/10/27 04:37:24;;;;;;;17.27;7.88;;;10.50;99.90;;;;;;5048926;28;20384;-66
2023/10/27 04:39:50;;;;;;;16.77;7.28;;;10.60;99.90;;;;;;5041115;28;20040;-66
2023/10/27 04:42:15;;;;;;;15.23;7.10;;;10.60;99.90;;;;;;5029950;28;20392;-67
2023/10/27 04:44:43;;;;;;;13.68;7.53;;;10.60;99.90;;;;;;5032790;28;20511;-67
2023/10/27 04:47:09;;;;;;;12.25;6.97;;;10.60;99.90;;;;;;5035042;28;20036;-67
2023/10/27 04:49:35;;;;;;;15.18;7.75;;;10.60;99.90;;;;;;5032397;28;20400;-67
2023/10/27 04:52:01;;;;;;;15.25;6.90;;;10.60;99.90;;;;;;5029415;28;20030;-66
2023/10/27 04:54:26;;;;;;;16.58;6.72;;;10.50;99.90;;;;;;5030139;28;20031;-67
2023/10/27 04:56:52;;;;;;;14.50;7.25;;;10.50;99.90;;;;;;5030526;28;20029;-66
2023/10/27 04:59:20;;;;;;;17.02;7.50;;;10.50;99.90;;;;;;5032452;28;20479;-66
2023/10/27 05:01:48;;;;;;;16.35;7.25;;;10.50;99.90;;;;;;5033152;28;20526;-66
2023/10/27 05:04:13;;;;;;;;;;;10.30;99.90;;;;;;5032369;28;20547;-66
2023/10/27 05:06:39;;;;;;;20.70;7.10;;;10.40;99.90;;;;;;5038842;28;19924;-66
2023/10/27 05:09:10;;;;;;;12.32;7.28;;;10.40;99.90;;;;;;5048367;28;20021;-66
2023/10/27 05:11:39;;;;;;;11.95;6.63;;;10.40;99.90;;;;;;5038318;28;20017;-66
2023/10/27 05:14:05;;;;;;;15.32;6.82;;;10.50;99.90;;;;;;5035041;28;20033;-66
2023/10/27 05:16:31;;;;;;;14.95;7.65;;;10.50;99.90;;;;;;5033473;28;20032;-67
2023/10/27 05:18:59;;;;;;;12.32;6.82;;;10.60;99.90;;;;;;5037033;28;20086;-66
2023/10/27 05:21:26;;;;;;;;;;;10.60;99.90;;;;;;5038134;28;20033;-66
2023/10/27 05:23:59;;;;;;;15.85;7.57;;;10.60;99.90;;;;;;5037989;28;19923;-66
2023/10/27 05:26:25;;;;;;;14.77;7.18;;;10.60;99.90;;;;;;5030103;28;20083;-66
2023/10/27 05:28:55;;;;;;;14.35;6.40;;;10.60;99.90;;;;;;5033310;28;20660;-66
2023/10/27 05:31:23;;;;;;;17.92;7.38;;;10.60;99.90;;;;;;5030445;28;20080;-66
2023/10/27 05:33:49;;;;;;;;;;;10.50;99.90;;;;;;5038716;28;20034;-67
2023/10/27 05:36:17;;;;;;;19.73;7.68;;;10.50;99.90;;;;;;5036505;28;19928;-66
2023/10/27 05:38:43;;;;;;;18.00;7.28;;;10.50;99.90;;;;;;5032810;28;20025;-66
2023/10/27 05:41:11;;;;;;;28.80;9.35;;;10.60;99.90;;;;;;5038299;28;20128;-67
2023/10/27 05:43:36;;;;;;;;;;;10.70;99.90;;;;;;5040856;28;20024;-67
2023/10/27 05:46:04;;;;;;;27.88;8.73;;;10.50;99.90;;;;;;5034414;28;19909;-67
2023/10/27 05:48:32;;;;;;;;;;;10.50;99.90;;;;;;5031657;28;20030;-67
2023/10/27 05:50:58;;;;;;;17.80;8.52;;;10.50;99.90;;;;;;5030205;28;20445;-67
2023/10/27 05:53:25;;;;;;;21.27;8.70;;;10.50;99.90;;;;;;5034765;28;20035;-66
2023/10/27 05:55:51;;;;;;;17.80;8.50;;;10.50;99.90;;;;;;5030232;28;20328;-67
2023/10/27 05:58:16;;;;;;;14.30;7.05;;;10.60;99.90;;;;;;5039834;28;20759;-68
2023/10/27 06:00:42;;;;;;;14.98;8.13;;;10.60;99.90;;;;;;5039397;28;20048;-67
2023/10/27 06:03:08;;;;;;;22.40;7.57;;;10.60;99.90;;;;;;5029152;28;20376;-67
2023/10/27 06:05:33;;;;;;;31.17;11.02;;;10.60;99.90;;;;;;5040301;28;20033;-67
2023/10/27 06:07:59;;;;;;;28.73;11.75;;;10.60;99.90;;;;;;5036412;28;20598;-67
2023/10/27 06:10:24;;;;;;;30.77;10.57;;;10.50;99.90;;;;;;5033117;28;20013;-67
2023/10/27 06:12:50;;;;;;;31.23;10.75;;;10.40;99.90;;;;;;5034586;28;20462;-67
2023/10/27 06:15:15;;;;;;;30.98;8.77;;;10.50;99.90;;;;;;5032327;28;20023;-67
2023/10/27 06:17:41;;;;;;;17.38;7.68;;;10.50;99.90;;;;;;5042008;28;20021;-67
2023/10/27 06:20:07;;;;;;;16.70;7.88;;;10.50;99.90;;;;;;5037366;28;20041;-67
2023/10/27 06:22:33;;;;;;;16.17;7.25;;;10.50;99.90;;;;;;5031430;28;20033;-67
2023/10/27 06:25:02;;;;;;;11.20;6.18;;;10.40;99.90;;;;;;5033212;28;20021;-66
2023/10/27 06:27:30;;;;;;;10.50;6.43;;;10.40;99.90;;;;;;5027106;28;20022;-66
2023/10/27 06:29:56;;;;;;;12.60;6.32;;;10.40;99.90;;;;;;5029403;28;20029;-67
2023/10/27 06:32:23;;;;;;;14.75;5.70;;;10.40;99.90;;;;;;5010376;28;20037;-66
2023/10/27 06:34:48;;;;;;;12.18;5.15;;;10.50;99.90;;;;;;5025630;28;20094;-66
2023/10/27 06:37:16;;;;;;;16.85;6.18;;;10.40;99.90;;;;;;5030303;28;20795;-66
2023/10/27 06:39:44;;;;;;;7.82;5.03;;;10.40;99.90;;;;;;5027937;28;20033;-66
2023/10/27 06:42:10;;;;;;;15.65;6.18;;;10.50;99.90;;;;;;5027261;28;20139;-66
2023/10/27 06:44:35;;;;;;;12.70;6.10;;;10.60;99.90;;;;;;5027177;28;20559;-68
2023/10/27 06:47:02;;;;;;;12.43;5.57;;;10.50;99.90;;;;;;5019874;28;20033;-67
2023/10/27 06:49:28;;;;;;;17.88;5.88;;;10.60;99.90;;;;;;5031529;28;20029;-67
2023/10/27 06:51:55;;;;;;;11.98;6.22;;;10.60;99.90;;;;;;5034587;28;20035;-67
2023/10/27 06:54:21;;;;;;;17.02;5.57;;;10.70;99.90;;;;;;5030007;28;20033;-67
2023/10/27 06:56:47;;;;;;;16.10;5.28;;;10.60;99.90;;;;;;5029754;28;20483;-67
2023/10/27 06:59:12;;;;;;;20.95;5.72;;;10.70;99.90;;;;;;5029266;28;20811;-67
2023/10/27 07:01:38;;;;;;;16.73;5.38;;;10.70;99.90;;;;;;5026274;28;20073;-67
2023/10/27 07:04:06;;;;;;;10.98;5.88;;;10.60;99.90;;;;;;5029215;28;20041;-67
2023/10/27 07:06:31;;;;;;;16.77;6.07;;;10.60;99.90;;;;;;5030825;28;20023;-67
2023/10/27 07:08:57;;;;;;;14.70;6.40;;;10.70;99.90;;;;;;5028128;28;20143;-68
2023/10/27 07:11:27;;;;;;;15.07;5.45;;;10.70;99.90;;;;;;5041586;28;20017;-67
2023/10/27 07:13:55;;;;;;;11.60;5.20;;;10.70;99.90;;;;;;5033230;28;20040;-67
2023/10/27 07:16:21;;;;;;;12.88;6.05;;;10.70;99.90;;;;;;5025733;28;20132;-68
2023/10/27 07:18:49;;;;;;;18.55;6.47;;;10.70;99.90;;;;;;5036288;28;20108;-68
2023/10/27 07:21:15;;;;;;;;;;;10.80;99.90;;;;;;5030190;28;20048;-67
2023/10/27 07:23:43;;;;;;;13.43;5.88;;;10.80;99.90;;;;;;5036058;28;19913;-67
2023/10/27 07:26:17;;;;;;;10.68;6.53;;;10.80;99.90;;;;;;5033265;28;20554;-68
2023/10/27 07:28:43;;;;;;;18.42;6.85;;;10.80;99.90;;;;;;5046272;28;20029;-68
2023/10/27 07:31:09;;;;;;;10.55;6.25;;;10.80;99.90;;;;;;5033779;28;20496;-67
2023/10/27 07:33:38;;;;;;;18.20;7.68;;;10.80;99.90;;;;;;5029410;28;20373;-67
2023/10/27 07:36:04;;;;;;;17.10;7.95;;;10.80;99.90;;;;;;5032874;28;20644;-67
2023/10/27 07:38:34;;;;;;;11.70;6.75;;;10.80;99.90;;;;;;5033953;28;20041;-68
2023/10/27 07:41:00;;;;;;;18.92;7.88;;;10.80;99.90;;;;;;5028917;28;20124;-67
2023/10/27 07:43:25;;;;;;;16.90;8.35;;;10.80;99.90;;;;;;5032939;28;20933;-67
2023/10/27 07:45:51;;;;;;;20.08;8.20;;;10.80;99.90;;;;;;5033999;28;20384;-67
2023/10/27 07:48:17;;;;;;;19.13;9.35;;;10.90;99.90;;;;;;5029494;28;20056;-67
2023/10/27 07:50:43;;;;;;;15.75;8.32;;;10.90;99.90;;;;;;5033276;28;20022;-67
2023/10/27 07:53:09;;;;;;;18.05;8.50;;;11.00;99.90;;;;;;5029140;28;20067;-67
2023/10/27 07:55:37;;;;;;;19.80;9.13;;;11.00;99.90;;;;;;5028304;28;20032;-67
2023/10/27 07:58:05;;;;;;;22.88;9.55;;;11.00;99.90;;;;;;5043937;28;20422;-67
2023/10/27 08:00:32;;;;;;;23.20;9.20;;;11.00;99.90;;;;;;5033223;28;20029;-68
2023/10/27 08:03:00;;;;;;;22.58;9.13;;;11.10;99.90;;;;;;5033107;28;20104;-68
2023/10/27 08:05:28;;;;;;;;;;;11.00;99.90;;;;;;5034346;28;20053;-68
2023/10/27 08:07:54;;;;;;;17.30;8.52;;;11.10;99.90;;;;;;5027966;28;21725;-67
2023/10/27 08:10:22;;;;;;;22.52;9.85;;;11.20;99.90;;;;;;5030307;28;20029;-68
2023/10/27 08:12:47;;;;;;;23.58;10.13;;;11.20;99.90;;;;;;5042876;28;20029;-68
2023/10/27 08:15:13;;;;;;;22.63;10.07;;;11.20;99.90;;;;;;5041086;28;20025;-67
2023/10/27 08:17:38;;;;;;;21.95;9.68;;;11.30;99.90;;;;;;5033916;28;20484;-68
2023/10/27 08:20:04;;;;;;;20.90;10.20;;;11.30;99.90;;;;;;5038903;28;20094;-67
2023/10/27 08:22:32;;;;;;;21.05;9.48;;;11.40;99.90;;;;;;5028984;28;20061;-67
2023/10/27 08:24:58;;;;;;;21.83;10.93;;;11.40;99.90;;;;;;5034810;28;20022;-67
2023/10/27 08:27:26;;;;;;;23.25;11.38;;;11.50;99.90;;;;;;5034007;28;20506;-68
2023/10/27 08:29:57;;;;;;;22.05;11.23;;;11.50;99.90;;;;;;5035477;28;20037;-67
2023/10/27 08:32:23;;;;;;;23.35;10.98;;;11.50;99.90;;;;;;5034324;28;20510;-67
2023/10/27 08:34:49;;;;;;;25.13;11.13;;;11.50;99.90;;;;;;5039254;28;20380;-67
2023/10/27 08:37:16;;;;;;;26.50;11.70;;;11.50;99.90;;;;;;5037548;28;20026;-67
2023/10/27 08:39:42;;;;;;;25.30;11.57;;;11.50;99.90;;;;;;5035417;28;20070;-67
2023/10/27 08:42:11;;;;;;;24.00;11.43;;;11.60;99.90;;;;;;5040947;28;20036;-67
2023/10/27 08:44:37;;;;;;;28.35;11.85;;;11.60;99.90;;;;;;5038521;28;20049;-67
2023/10/27 08:47:05;;;;;;;22.42;10.88;;;11.60;99.90;;;;;;5037667;28;20057;-67
2023/10/27 08:49:34;;;;;;;25.50;11.13;;;11.60;99.90;;;;;;5034991;28;20021;-67
2023/10/27 08:52:03;;;;;;;24.88;11.93;;;11.60;99.90;;;;;;5030238;28;20115;-67
2023/10/27 08:54:31;;;;;;;27.98;12.23;;;11.70;99.90;;;;;;5030711;28;20036;-67
2023/10/27 08:56:57;;;;;;;27.92;13.05;;;11.70;99.90;;;;;;5035418;28;20057;-68
2023/10/27 08:59:23;;;;;;;30.02;12.77;;;11.80;99.90;;;;;;5031366;28;20084;-68
2023/10/27 09:01:48;;;;;;;31.88;12.95;;;11.70;99.90;;;;;;5031251;28;20037;-67
2023/10/27 09:04:15;;;;;;;29.25;13.18;;;11.70;99.90;;;;;;5029268;28;20092;-67
2023/10/27 09:06:42;;;;;;;27.13;13.55;;;11.80;99.90;;;;;;5032075;28;20117;-67
2023/10/27 09:09:11;;;;;;;29.83;14.48;;;11.80;99.90;;;;;;5038277;28;20021;-68
2023/10/27 09:11:48;;;;;;;34.97;13.93;;;11.80;99.90;;;;;;5032213;28;20419;-67
2023/10/27 09:14:24;;;;;;;31.27;13.57;;;11.80;99.90;;;;;;5027588;28;20104;-68
2023/10/27 09:16:53;;;;;;;25.65;13.25;;;11.80;99.90;;;;;;5026507;28;20030;-67
2023/10/27 09:19:26;;;;;;;30.40;13.63;;;11.80;99.90;;;;;;5031616;28;20025;-67
2023/10/27 09:21:53;;;;;;;26.73;12.15;;;11.80;99.90;;;;;;5028318;28;20037;-67
2023/10/27 09:24:26;;;;;;;29.65;13.88;;;11.80;99.90;;;;;;5032948;28;20431;-68
2023/10/27 09:26:53;;;;;;;32.22;14.30;;;11.80;99.90;;;;;;5027217;28;20529;-67
2023/10/27 09:29:20;;;;;;;28.17;14.43;;;11.90;99.90;;;;;;5027408;28;20401;-67
2023/10/27 09:31:50;;;;;;;31.63;14.88;;;11.80;99.90;;;;;;5025610;28;20037;-67
2023/10/27 09:34:23;;;;;;;28.95;14.38;;;11.80;99.90;;;;;;5025230;28;20398;-68
2023/10/27 09:36:52;;;;;;;31.92;15.10;;;11.80;99.90;;;;;;5031016;28;20116;-68
2023/10/27 09:39:22;;;;;;;34.17;15.13;;;11.90;99.90;;;;;;5036012;28;20387;-68
2023/10/27 09:42:06;;;;;;;28.25;15.38;;;11.90;99.90;;;;;;5035511;28;20032;-67
2023/10/27 09:44:44;;;;;;;32.22;15.27;;;11.90;99.90;;;;;;5036685;28;20049;-67
2023/10/27 09:47:27;;;;;;;29.45;15.68;;;11.90;99.90;;;;;;5040344;28;20175;-68
2023/10/27 09:50:00;;;;;;;32.00;14.23;;;11.90;99.90;;;;;;5036362;28;20773;-68
2023/10/27 09:52:31;;;;;;;32.80;15.40;;;11.90;99.90;;;;;;5034292;28;20483;-68
2023/10/27 09:54:58;;;;;;;30.30;16.20;;;12.00;99.90;;;;;;5039212;28;20510;-68
2023/10/27 09:57:26;;;;;;;27.35;14.57;;;12.00;99.90;;;;;;5027910;28;20037;-68
2023/10/27 09:59:54;;;;;;;30.40;15.77;;;12.00;99.90;;;;;;5039457;28;20131;-68
2023/10/27 10:02:23;;;;;;;30.50;14.63;;;12.00;99.90;;;;;;5037576;28;20088;-68
2023/10/27 10:04:51;;;;;;;26.35;13.98;;;11.90;99.90;;;;;;5035002;28;20024;-69
2023/10/27 10:07:52;;;;;;;26.65;14.23;;;11.90;99.90;;;;;;5027839;28;20021;-68
2023/10/27 10:10:20;;;;;;;25.45;14.13;;;12.00;99.90;;;;;;5037821;28;20014;-68
2023/10/27 10:13:11;;;;;;;27.98;15.90;;;12.00;99.90;;;;;;5031677;28;20032;-68
2023/10/27 10:15:38;;;;;;;26.67;14.25;;;12.00;99.90;;;;;;5030438;28;20115;-68
2023/10/27 10:18:08;;;;;;;28.80;15.02;;;12.00;99.90;;;;;;5031922;28;20087;-68
2023/10/27 10:20:47;;;;;;;27.95;15.82;;;12.00;99.90;;;;;;5025683;28;20476;-68
2023/10/27 10:23:14;;;;;;;28.85;16.33;;;12.00;99.90;;;;;;5027371;28;20022;-68
2023/10/27 10:25:51;;;;;;;33.33;18.50;;;12.00;99.90;;;;;;5024918;28;20388;-68
2023/10/27 10:28:16;;;;;;;35.15;19.95;;;12.00;99.90;;;;;;5027067;28;20033;-68
2023/10/27 10:31:13;;;;;;;36.33;20.40;;;12.00;99.90;;;;;;5029812;28;20028;-68
2023/10/27 10:33:39;;;;;;;35.70;19.05;;;12.00;99.90;;;;;;5026551;28;20138;-68
2023/10/27 10:36:27;;;;;;;32.70;19.30;;;12.10;99.90;;;;;;5028169;28;20040;-68
2023/10/27 10:39:00;;;;;;;36.65;19.85;;;12.10;99.90;;;;;;5038215;28;20044;-68
2023/10/27 10:41:43;;;;;;;33.78;18.20;;;12.10;99.90;;;;;;5032895;28;20032;-68
2023/10/27 10:44:16;;;;;;;33.00;18.92;;;12.10;99.90;;;;;;5036655;28;20068;-68
2023/10/27 10:46:44;;;;;;;32.67;18.90;;;12.10;99.90;;;;;;5032864;28;20052;-68
2023/10/27 10:49:13;;;;;;;33.70;19.20;;;12.20;99.90;;;;;;5033210;28;20467;-68
2023/10/27 10:51:41;;;;;;;40.53;19.95;;;12.20;99.90;;;;;;5034004;28;20021;-68
2023/10/27 10:54:12;;;;;;;33.80;20.10;;;12.10;99.90;;;;;;5030978;28;20057;-68
2023/10/27 10:56:38;;;;;;;37.53;19.88;;;12.10;99.90;;;;;;5033266;28;20017;-68
2023/10/27 10:59:08;;;;;;;36.92;20.02;;;12.10;99.90;;;;;;5035399;28;20572;-68
2023/10/27 11:01:34;;;;;;;31.48;19.02;;;12.10;99.90;;;;;;5027073;28;20022;-68
2023/10/27 11:04:00;;;;;;;35.08;19.33;;;12.20;99.90;;;;;;5029724;28;20025;-68
2023/10/27 11:06:29;;;;;;;38.20;20.40;;;12.20;99.90;;;;;;5041535;23;20056;-68
2023/10/27 11:08:55;;;;;;;35.92;19.88;;;12.10;99.90;;;;;;5024634;28;20555;-68
2023/10/27 11:11:21;;;;;;;33.70;20.60;;;12.20;99.90;;;;;;5019417;28;20040;-68
2023/10/27 11:13:50;;;;;;;39.40;21.35;;;12.10;99.90;;;;;;5027037;28;20025;-67
2023/10/27 11:16:19;;;;;;;41.47;23.27;;;12.20;99.90;;;;;;5025060;28;20395;-67
2023/10/27 11:18:45;;;;;;;40.80;22.38;;;12.20;99.90;;;;;;5025497;28;20033;-68
2023/10/27 11:21:18;;;;;;;38.85;22.98;;;12.20;99.90;;;;;;5027055;28;20029;-68
2023/10/27 11:23:45;;;;;;;42.35;22.50;;;12.20;99.90;;;;;;5023824;28;20029;-68
2023/10/27 11:26:11;;;;;;;41.80;22.58;;;12.20;99.90;;;;;;5027458;28;20042;-68
2023/10/27 11:28:47;;;;;;;39.05;22.17;;;12.20;99.90;;;;;;5026495;28;20022;-68
2023/10/27 11:31:21;;;;;;;43.85;22.73;;;12.20;99.90;;;;;;5028187;28;20038;-68
2023/10/27 11:34:03;;;;;;;49.45;23.50;;;12.10;99.90;;;;;;5028446;28;20435;-68
2023/10/27 11:36:35;;;;;;;39.83;23.05;;;12.10;99.90;;;;;;5029804;28;20021;-68
2023/10/27 11:39:32;;;;;;;36.90;21.48;;;12.10;99.90;;;;;;5029572;28;20108;-68
2023/10/27 11:42:00;;;;;;;;;;;12.10;99.90;;;;;;5012121;28;20057;-71
2023/10/27 11:44:27;;;;;;;41.50;21.02;;;12.10;99.90;;;;;;5025835;28;20007;-68
2023/10/27 11:46:59;;;;;;;38.97;20.90;;;12.10;99.90;;;;;;5027904;28;20026;-67
2023/10/27 11:49:26;;;;;;;37.88;20.30;;;12.10;99.90;;;;;;5043879;28;20032;-68
2023/10/27 11:51:56;;;;;;;40.00;21.42;;;12.10;99.90;;;;;;5025184;28;20029;-67
2023/10/27 11:54:26;;;;;;;37.20;21.65;;;12.10;99.90;;;;;;5029492;28;20029;-67
2023/10/27 11:56:52;;;;;;;37.90;19.90;;;12.20;99.90;;;;;;5028686;28;20054;-68
2023/10/27 11:59:19;;;;;;;34.78;19.40;;;12.20;99.90;;;;;;5029721;28;20444;-68
2023/10/27 12:01:47;;;;;;;36.58;19.67;;;12.20;99.90;;;;;;5028317;28;20041;-67
2023/10/27 12:04:12;;;;;;;37.03;19.05;;;12.10;99.90;;;;;;5029180;28;20815;-67
2023/10/27 12:06:42;;;;;;;35.35;19.40;;;12.20;99.90;;;;;;5026503;28;20121;-67
2023/10/27 12:09:11;;;;;;;32.70;18.67;;;12.20;99.90;;;;;;5027422;28;20042;-67
2023/10/27 12:11:45;;;;;;;37.13;19.23;;;12.20;99.90;;;;;;5024046;28;20112;-67
2023/10/27 12:14:10;;;;;;;33.83;18.30;;;12.20;99.90;;;;;;5025324;28;20057;-68
2023/10/27 12:16:36;;;;;;;32.80;17.45;;;12.20;99.90;;;;;;5027522;28;20068;-68
2023/10/27 12:19:02;;;;;;;36.13;18.40;;;12.20;99.90;;;;;;5030962;28;20025;-68
2023/10/27 12:21:28;;;;;;;35.17;17.92;;;12.30;99.90;;;;;;5031596;28;20509;-68
2023/10/27 12:23:54;;;;;;;37.13;18.50;;;12.30;99.90;;;;;;5026888;28;20034;-68
2023/10/27 12:26:23;;;;;;;34.85;18.70;;;12.30;99.90;;;;;;5026760;28;20122;-68
2023/10/27 12:28:51;;;;;;;37.22;19.02;;;12.30;99.90;;;;;;5028405;28;20108;-67
2023/10/27 12:31:19;;;;;;;34.25;17.52;;;12.30;99.90;;;;;;5030027;28;20132;-67
2023/10/27 12:33:45;;;;;;;35.45;18.50;;;12.30;99.90;;;;;;5030839;28;20026;-67
2023/10/27 12:36:11;;;;;;;32.38;17.40;;;12.30;99.90;;;;;;5026902;28;20038;-67
2023/10/27 12:38:38;;;;;;;35.25;18.85;;;12.30;99.90;;;;;;5029497;28;20071;-67
2023/10/27 12:41:04;;;;;;;33.13;17.17;;;12.30;99.90;;;;;;5028644;28;20032;-67